Impacts TAF Board
For situational awareness. Not to be used for flight planning purposes.
IDs:

KFLL - Ft Lauderdale-Hollyw, FL, US

Issued at 0857 UTC 18 Oct 2018
Updated at 0918 UTC 18 Oct 2018
Potential Impact None Slight Moderate High
Time<<19/10Z 19/11Z 19/12Z 19/13Z 19/14Z 19/15Z 19/16Z 19/17Z 19/18Z 19/19Z 19/20Z 19/21Z 19/22Z
Type PRVL PRVL
VIS >6 >6
CIG -- --
Cover SCT SCT
FltCat VFR VFR
WX -- --
WDir 80 80
WSpd 10 10
WGst -- --
Raw TAF
KFLL 180857Z 1809/1912 08008KT P6SM FEW025
  FM181600 09012KT P6SM SCT025 SCT250
  FM190100 08010KT P6SM SCT030 SCT250


METAR Board
Radar Display
Forecast Discussion
For situational awareness. Not to be used for flight planning purposes.